sensor_id;sensor_type;location;lat;lon;timestamp;temperature;humidity
2260;DHT22;333;48.800;9.530;2023-06-01T00:01:18;13.30;99.60
2260;DHT22;333;48.800;9.530;2023-06-01T00:03:48;13.20;99.60
2260;DHT22;333;48.800;9.530;2023-06-01T00:06:16;13.20;99.60
2260;DHT22;333;48.800;9.530;2023-06-01T00:08:43;13.20;99.60
2260;DHT22;333;48.800;9.530;2023-06-01T00:11:10;13.20;99.60
2260;DHT22;333;48.800;9.530;2023-06-01T00:13:37;13.10;99.60
2260;DHT22;333;48.800;9.530;2023-06-01T00:16:04;13.10;99.60
2260;DHT22;333;48.800;9.530;2023-06-01T00:18:32;13.10;99.60
2260;DHT22;333;48.800;9.530;2023-06-01T00:21:00;13.10;99.60
2260;DHT22;333;48.800;9.530;2023-06-01T00:23:27;13.10;99.60
2260;DHT22;333;48.800;9.530;2023-06-01T00:25:54;13.00;99.60
2260;DHT22;333;48.800;9.530;2023-06-01T00:28:21;12.90;99.60
2260;DHT22;333;48.800;9.530;2023-06-01T00:30:48;12.90;99.60
2260;DHT22;333;48.800;9.530;2023-06-01T00:33:15;13.00;99.60
2260;DHT22;333;48.800;9.530;2023-06-01T00:35:42;13.00;99.60
2260;DHT22;333;48.800;9.530;2023-06-01T00:38:10;13.00;99.60
2260;DHT22;333;48.800;9.530;2023-06-01T00:40:38;12.90;99.60
2260;DHT22;333;48.800;9.530;2023-06-01T00:43:05;12.90;99.60
2260;DHT22;333;48.800;9.530;2023-06-01T00:45:32;12.90;99.60
2260;DHT22;333;48.800;9.530;2023-06-01T00:47:59;12.80;99.60
2260;DHT22;333;48.800;9.530;2023-06-01T00:50:27;12.80;99.60
2260;DHT22;333;48.800;9.530;2023-06-01T00:52:55;12.70;99.60
2260;DHT22;333;48.800;9.530;2023-06-01T00:55:24;12.70;99.60
2260;DHT22;333;48.800;9.530;2023-06-01T00:57:51;12.50;99.60
2260;DHT22;333;48.800;9.530;2023-06-01T01:00:19;12.50;99.60
2260;DHT22;333;48.800;9.530;2023-06-01T01:02:46;12.40;99.60
2260;DHT22;333;48.800;9.530;2023-06-01T01:05:15;12.40;99.60
2260;DHT22;333;48.800;9.530;2023-06-01T01:07:51;12.50;99.60
2260;DHT22;333;48.800;9.530;2023-06-01T01:10:27;12.50;99.60
2260;DHT22;333;48.800;9.530;2023-06-01T01:13:03;12.60;99.60
2260;DHT22;333;48.800;9.530;2023-06-01T01:15:41;12.50;99.60
2260;DHT22;333;48.800;9.530;2023-06-01T01:18:14;12.40;99.60
2260;DHT22;333;48.800;9.530;2023-06-01T01:20:47;12.40;99.60
2260;DHT22;333;48.800;9.530;2023-06-01T01:23:27;12.40;99.60
2260;DHT22;333;48.800;9.530;2023-06-01T01:26:24;12.40;99.60
2260;DHT22;333;48.800;9.530;2023-06-01T01:29:00;12.50;99.60
2260;DHT22;333;48.800;9.530;2023-06-01T01:31:28;12.50;99.60
2260;DHT22;333;48.800;9.530;2023-06-01T01:33:58;12.40;99.60
2260;DHT22;333;48.800;9.530;2023-06-01T01:36:25;12.20;99.60
2260;DHT22;333;48.800;9.530;2023-06-01T01:38:52;12.20;99.60
2260;DHT22;333;48.800;9.530;2023-06-01T01:41:20;12.10;99.60
2260;DHT22;333;48.800;9.530;2023-06-01T01:43:48;12.20;99.60
2260;DHT22;333;48.800;9.530;2023-06-01T01:46:22;12.20;99.60
2260;DHT22;333;48.800;9.530;2023-06-01T01:48:55;12.20;99.60
2260;DHT22;333;48.800;9.530;2023-06-01T01:51:29;12.20;99.60
2260;DHT22;333;48.800;9.530;2023-06-01T01:54:04;12.20;99.60
2260;DHT22;333;48.800;9.530;2023-06-01T01:56:32;12.30;99.60
2260;DHT22;333;48.800;9.530;2023-06-01T01:59:02;12.30;99.60
2260;DHT22;333;48.800;9.530;2023-06-01T02:01:32;12.30;99.60
2260;DHT22;333;48.800;9.530;2023-06-01T02:04:00;12.30;99.60
2260;DHT22;333;48.800;9.530;2023-06-01T02:06:28;12.30;99.60
2260;DHT22;333;48.800;9.530;2023-06-01T02:08:55;12.20;99.60
2260;DHT22;333;48.800;9.530;2023-06-01T02:11:22;12.00;99.60
2260;DHT22;333;48.800;9.530;2023-06-01T02:13:49;11.90;99.60
2260;DHT22;333;48.800;9.530;2023-06-01T02:16:16;11.90;99.60
2260;DHT22;333;48.800;9.530;2023-06-01T02:18:45;11.80;99.60
2260;DHT22;333;48.800;9.530;2023-06-01T02:21:13;11.70;99.60
2260;DHT22;333;48.800;9.530;2023-06-01T02:23:40;11.80;99.60
2260;DHT22;333;48.800;9.530;2023-06-01T02:26:08;11.90;99.60
2260;DHT22;333;48.800;9.530;2023-06-01T02:28:36;11.70;99.60
2260;DHT22;333;48.800;9.530;2023-06-01T02:31:04;11.60;99.60
2260;DHT22;333;48.800;9.530;2023-06-01T02:33:31;11.50;99.60
2260;DHT22;333;48.800;9.530;2023-06-01T02:35:59;11.40;99.60
2260;DHT22;333;48.800;9.530;2023-06-01T02:38:26;11.40;99.60
2260;DHT22;333;48.800;9.530;2023-06-01T02:40:53;11.30;99.60
2260;DHT22;333;48.800;9.530;2023-06-01T02:43:20;11.40;99.60
2260;DHT22;333;48.800;9.530;2023-06-01T02:45:47;11.40;99.60
2260;DHT22;333;48.800;9.530;2023-06-01T02:48:14;11.30;99.60
2260;DHT22;333;48.800;9.530;2023-06-01T02:50:41;11.30;99.60
2260;DHT22;333;48.800;9.530;2023-06-01T02:53:12;11.20;99.60
2260;DHT22;333;48.800;9.530;2023-06-01T02:55:39;11.30;99.60
2260;DHT22;333;48.800;9.530;2023-06-01T02:58:06;11.30;99.60
2260;DHT22;333;48.800;9.530;2023-06-01T03:00:40;11.30;99.60
2260;DHT22;333;48.800;9.530;2023-06-01T03:03:07;11.30;99.60
2260;DHT22;333;48.800;9.530;2023-06-01T03:05:34;11.20;99.60
2260;DHT22;333;48.800;9.530;2023-06-01T03:08:02;11.40;99.60
2260;DHT22;333;48.800;9.530;2023-06-01T03:10:30;11.20;99.60
2260;DHT22;333;48.800;9.530;2023-06-01T03:12:57;11.10;99.60
2260;DHT22;333;48.800;9.530;2023-06-01T03:15:25;11.20;99.60
2260;DHT22;333;48.800;9.530;2023-06-01T03:17:53;11.10;99.60
2260;DHT22;333;48.800;9.530;2023-06-01T03:20:20;11.10;99.60
2260;DHT22;333;48.800;9.530;2023-06-01T03:22:48;11.00;99.60
2260;DHT22;333;48.800;9.530;2023-06-01T03:25:15;11.00;99.60
2260;DHT22;333;48.800;9.530;2023-06-01T03:27:44;11.10;99.60
2260;DHT22;333;48.800;9.530;2023-06-01T03:30:12;11.00;99.60
2260;DHT22;333;48.800;9.530;2023-06-01T03:32:39;11.10;99.60
2260;DHT22;333;48.800;9.530;2023-06-01T03:35:08;11.20;99.60
2260;DHT22;333;48.800;9.530;2023-06-01T03:37:38;11.20;99.60
2260;DHT22;333;48.800;9.530;2023-06-01T03:40:06;11.10;99.60
2260;DHT22;333;48.800;9.530;2023-06-01T03:42:36;11.00;99.60
2260;DHT22;333;48.800;9.530;2023-06-01T03:45:05;11.00;99.60
2260;DHT22;333;48.800;9.530;2023-06-01T03:47:33;11.10;99.60
2260;DHT22;333;48.800;9.530;2023-06-01T03:50:00;11.00;99.60
2260;DHT22;333;48.800;9.530;2023-06-01T03:52:27;11.10;99.60
2260;DHT22;333;48.800;9.530;2023-06-01T03:54:54;11.10;99.60
2260;DHT22;333;48.800;9.530;2023-06-01T03:57:22;11.20;99.60
2260;DHT22;333;48.800;9.530;2023-06-01T03:59:49;11.40;99.60
2260;DHT22;333;48.800;9.530;2023-06-01T04:02:18;11.40;99.60
2260;DHT22;333;48.800;9.530;2023-06-01T04:04:45;11.40;99.60
2260;DHT22;333;48.800;9.530;2023-06-01T04:07:13;11.50;99.60
2260;DHT22;333;48.800;9.530;2023-06-01T04:09:44;11.60;99.60
2260;DHT22;333;48.800;9.530;2023-06-01T04:12:13;11.60;99.60
2260;DHT22;333;48.800;9.530;2023-06-01T04:14:40;11.60;99.60
2260;DHT22;333;48.800;9.530;2023-06-01T04:17:07;11.60;99.60
2260;DHT22;333;48.800;9.530;2023-06-01T04:19:38;11.60;99.60
2260;DHT22;333;48.800;9.530;2023-06-01T04:22:05;11.60;99.60
2260;DHT22;333;48.800;9.530;2023-06-01T04:24:32;11.60;99.60
2260;DHT22;333;48.800;9.530;2023-06-01T04:26:59;11.60;99.60
2260;DHT22;333;48.800;9.530;2023-06-01T04:29:26;11.70;99.60
2260;DHT22;333;48.800;9.530;2023-06-01T04:31:54;11.90;99.60
2260;DHT22;333;48.800;9.530;2023-06-01T04:34:21;12.00;99.60
2260;DHT22;333;48.800;9.530;2023-06-01T04:36:51;12.20;99.60
2260;DHT22;333;48.800;9.530;2023-06-01T04:39:18;12.10;99.60
2260;DHT22;333;48.800;9.530;2023-06-01T04:41:45;12.10;99.60
2260;DHT22;333;48.800;9.530;2023-06-01T04:44:14;12.20;99.60
2260;DHT22;333;48.800;9.530;2023-06-01T04:46:43;12.30;99.60
2260;DHT22;333;48.800;9.530;2023-06-01T04:49:11;12.30;99.60
2260;DHT22;333;48.800;9.530;2023-06-01T04:51:41;12.30;99.60
2260;DHT22;333;48.800;9.530;2023-06-01T04:54:09;12.40;99.60
2260;DHT22;333;48.800;9.530;2023-06-01T04:56:36;12.40;99.60
2260;DHT22;333;48.800;9.530;2023-06-01T04:59:03;12.50;99.60
2260;DHT22;333;48.800;9.530;2023-06-01T05:01:30;12.50;99.60
2260;DHT22;333;48.800;9.530;2023-06-01T05:03:58;12.50;99.60
2260;DHT22;333;48.800;9.530;2023-06-01T05:06:26;12.50;99.60
2260;DHT22;333;48.800;9.530;2023-06-01T05:08:53;12.70;99.60
2260;DHT22;333;48.800;9.530;2023-06-01T05:11:21;12.70;99.60
2260;DHT22;333;48.800;9.530;2023-06-01T05:13:48;12.80;99.60
2260;DHT22;333;48.800;9.530;2023-06-01T05:16:17;12.90;99.60
2260;DHT22;333;48.800;9.530;2023-06-01T05:18:44;13.00;99.60
2260;DHT22;333;48.800;9.530;2023-06-01T05:21:10;13.10;99.60
2260;DHT22;333;48.800;9.530;2023-06-01T05:23:37;13.20;99.60
2260;DHT22;333;48.800;9.530;2023-06-01T05:26:05;13.50;99.60
2260;DHT22;333;48.800;9.530;2023-06-01T05:28:34;13.50;99.60
2260;DHT22;333;48.800;9.530;2023-06-01T05:31:01;13.80;99.60
2260;DHT22;333;48.800;9.530;2023-06-01T05:33:28;13.90;99.60
2260;DHT22;333;48.800;9.530;2023-06-01T05:35:55;14.10;99.60
2260;DHT22;333;48.800;9.530;2023-06-01T05:38:23;14.20;99.60
2260;DHT22;333;48.800;9.530;2023-06-01T05:40:50;14.30;99.60
2260;DHT22;333;48.800;9.530;2023-06-01T05:43:17;14.20;99.60
2260;DHT22;333;48.800;9.530;2023-06-01T05:45:45;14.20;99.60
2260;DHT22;333;48.800;9.530;2023-06-01T05:48:14;14.20;99.60
2260;DHT22;333;48.800;9.530;2023-06-01T05:50:41;14.50;99.60
2260;DHT22;333;48.800;9.530;2023-06-01T05:53:08;14.50;99.60
2260;DHT22;333;48.800;9.530;2023-06-01T05:55:35;14.70;99.60
2260;DHT22;333;48.800;9.530;2023-06-01T05:58:02;14.80;99.60
2260;DHT22;333;48.800;9.530;2023-06-01T06:00:29;15.00;99.60
2260;DHT22;333;48.800;9.530;2023-06-01T06:02:58;15.10;99.60
2260;DHT22;333;48.800;9.530;2023-06-01T06:05:24;15.30;99.60
2260;DHT22;333;48.800;9.530;2023-06-01T06:07:51;15.30;99.60
2260;DHT22;333;48.800;9.530;2023-06-01T06:10:19;15.40;99.60
2260;DHT22;333;48.800;9.530;2023-06-01T06:12:46;15.60;99.60
2260;DHT22;333;48.800;9.530;2023-06-01T06:15:13;15.80;99.60
2260;DHT22;333;48.800;9.530;2023-06-01T06:17:40;15.90;99.60
2260;DHT22;333;48.800;9.530;2023-06-01T06:20:09;16.00;99.60
2260;DHT22;333;48.800;9.530;2023-06-01T06:22:37;16.20;99.60
2260;DHT22;333;48.800;9.530;2023-06-01T06:25:05;16.30;99.60
2260;DHT22;333;48.800;9.530;2023-06-01T06:27:32;16.50;99.60
2260;DHT22;333;48.800;9.530;2023-06-01T06:29:59;16.60;99.60
2260;DHT22;333;48.800;9.530;2023-06-01T06:32:26;16.80;99.60
2260;DHT22;333;48.800;9.530;2023-06-01T06:34:53;16.80;99.60
2260;DHT22;333;48.800;9.530;2023-06-01T06:37:21;16.90;99.60
2260;DHT22;333;48.800;9.530;2023-06-01T06:39:48;17.10;99.60
2260;DHT22;333;48.800;9.530;2023-06-01T06:42:15;17.00;99.60
2260;DHT22;333;48.800;9.530;2023-06-01T06:44:42;17.10;99.60
2260;DHT22;333;48.800;9.530;2023-06-01T06:47:09;17.30;99.60
2260;DHT22;333;48.800;9.530;2023-06-01T06:49:40;17.40;99.60
2260;DHT22;333;48.800;9.530;2023-06-01T06:52:08;17.60;99.60
2260;DHT22;333;48.800;9.530;2023-06-01T06:54:38;17.70;99.20
2260;DHT22;333;48.800;9.530;2023-06-01T06:57:06;17.70;99.30
2260;DHT22;333;48.800;9.530;2023-06-01T06:59:33;17.80;99.00
2260;DHT22;333;48.800;9.530;2023-06-01T07:02:00;17.90;98.00
2260;DHT22;333;48.800;9.530;2023-06-01T07:04:27;18.20;98.40
2260;DHT22;333;48.800;9.530;2023-06-01T07:06:55;18.40;97.90
2260;DHT22;333;48.800;9.530;2023-06-01T07:09:22;18.60;96.20
2260;DHT22;333;48.800;9.530;2023-06-01T07:11:50;18.50;95.50
2260;DHT22;333;48.800;9.530;2023-06-01T07:14:17;18.60;96.20
2260;DHT22;333;48.800;9.530;2023-06-01T07:16:44;18.90;94.80
2260;DHT22;333;48.800;9.530;2023-06-01T07:19:11;19.10;94.00
2260;DHT22;333;48.800;9.530;2023-06-01T07:21:39;19.10;93.60
2260;DHT22;333;48.800;9.530;2023-06-01T07:24:07;19.30;93.00
2260;DHT22;333;48.800;9.530;2023-06-01T07:26:34;19.30;92.90
2260;DHT22;333;48.800;9.530;2023-06-01T07:29:03;19.40;92.80
2260;DHT22;333;48.800;9.530;2023-06-01T07:31:32;19.60;92.10
2260;DHT22;333;48.800;9.530;2023-06-01T07:34:00;20.00;92.30
2260;DHT22;333;48.800;9.530;2023-06-01T07:36:28;20.10;91.60
2260;DHT22;333;48.800;9.530;2023-06-01T07:39:03;20.10;90.80
2260;DHT22;333;48.800;9.530;2023-06-01T07:41:32;20.10;90.10
2260;DHT22;333;48.800;9.530;2023-06-01T07:44:00;20.40;90.80
2260;DHT22;333;48.800;9.530;2023-06-01T07:46:28;20.50;88.70
2260;DHT22;333;48.800;9.530;2023-06-01T07:48:57;20.50;88.50
2260;DHT22;333;48.800;9.530;2023-06-01T07:51:24;20.60;89.90
2260;DHT22;333;48.800;9.530;2023-06-01T07:53:51;20.90;88.70
2260;DHT22;333;48.800;9.530;2023-06-01T07:56:21;20.90;86.50
2260;DHT22;333;48.800;9.530;2023-06-01T07:58:52;20.90;87.30
2260;DHT22;333;48.800;9.530;2023-06-01T08:01:19;20.90;86.80
2260;DHT22;333;48.800;9.530;2023-06-01T08:03:47;21.10;86.70
2260;DHT22;333;48.800;9.530;2023-06-01T08:06:15;21.30;87.20
2260;DHT22;333;48.800;9.530;2023-06-01T08:08:42;21.60;85.50
2260;DHT22;333;48.800;9.530;2023-06-01T08:11:11;21.50;85.50
2260;DHT22;333;48.800;9.530;2023-06-01T08:13:38;21.50;84.80
2260;DHT22;333;48.800;9.530;2023-06-01T08:16:07;21.60;85.30
2260;DHT22;333;48.800;9.530;2023-06-01T08:18:39;21.80;84.40
2260;DHT22;333;48.800;9.530;2023-06-01T08:21:09;22.10;84.10
2260;DHT22;333;48.800;9.530;2023-06-01T08:23:36;22.30;85.40
2260;DHT22;333;48.800;9.530;2023-06-01T08:26:04;22.30;83.70
2260;DHT22;333;48.800;9.530;2023-06-01T08:28:31;22.30;83.90
2260;DHT22;333;48.800;9.530;2023-06-01T08:30:59;22.40;84.50
2260;DHT22;333;48.800;9.530;2023-06-01T08:33:26;22.50;83.90
2260;DHT22;333;48.800;9.530;2023-06-01T08:35:53;22.40;84.80
2260;DHT22;333;48.800;9.530;2023-06-01T08:38:26;22.40;84.40
2260;DHT22;333;48.800;9.530;2023-06-01T08:41:17;22.50;85.20
2260;DHT22;333;48.800;9.530;2023-06-01T08:43:51;22.60;85.20
2260;DHT22;333;48.800;9.530;2023-06-01T08:46:21;22.70;85.70
2260;DHT22;333;48.800;9.530;2023-06-01T08:48:49;22.70;84.20
2260;DHT22;333;48.800;9.530;2023-06-01T08:51:20;22.80;84.50
2260;DHT22;333;48.800;9.530;2023-06-01T08:53:49;23.10;84.20
2260;DHT22;333;48.800;9.530;2023-06-01T08:56:18;23.20;82.80
2260;DHT22;333;48.800;9.530;2023-06-01T08:58:47;23.00;83.00
2260;DHT22;333;48.800;9.530;2023-06-01T09:01:17;23.20;83.80
2260;DHT22;333;48.800;9.530;2023-06-01T09:03:47;23.40;82.80
2260;DHT22;333;48.800;9.530;2023-06-01T09:06:14;23.50;82.80
2260;DHT22;333;48.800;9.530;2023-06-01T09:08:44;23.80;82.10
2260;DHT22;333;48.800;9.530;2023-06-01T09:11:13;24.10;81.80
2260;DHT22;333;48.800;9.530;2023-06-01T09:13:41;24.40;81.50
2260;DHT22;333;48.800;9.530;2023-06-01T09:16:08;24.50;81.00
2260;DHT22;333;48.800;9.530;2023-06-01T09:18:36;24.70;79.50
2260;DHT22;333;48.800;9.530;2023-06-01T09:21:10;25.00;79.20
2260;DHT22;333;48.800;9.530;2023-06-01T09:23:37;25.50;78.60
2260;DHT22;333;48.800;9.530;2023-06-01T09:26:08;25.90;78.00
2260;DHT22;333;48.800;9.530;2023-06-01T09:28:56;25.90;77.70
2260;DHT22;333;48.800;9.530;2023-06-01T09:31:39;25.40;77.50
2260;DHT22;333;48.800;9.530;2023-06-01T09:34:07;25.40;78.40
2260;DHT22;333;48.800;9.530;2023-06-01T09:36:35;25.50;76.90
2260;DHT22;333;48.800;9.530;2023-06-01T09:39:04;25.90;75.90
2260;DHT22;333;48.800;9.530;2023-06-01T09:41:48;25.70;76.10
2260;DHT22;333;48.800;9.530;2023-06-01T09:44:23;25.40;77.30
2260;DHT22;333;48.800;9.530;2023-06-01T09:46:52;25.70;77.60
2260;DHT22;333;48.800;9.530;2023-06-01T09:49:23;25.70;76.90
2260;DHT22;333;48.800;9.530;2023-06-01T09:51:52;26.20;75.60
2260;DHT22;333;48.800;9.530;2023-06-01T09:54:24;26.50;74.00
2260;DHT22;333;48.800;9.530;2023-06-01T09:56:52;26.60;74.90
2260;DHT22;333;48.800;9.530;2023-06-01T09:59:20;26.80;73.30
2260;DHT22;333;48.800;9.530;2023-06-01T10:01:50;26.90;73.70
2260;DHT22;333;48.800;9.530;2023-06-01T10:04:21;27.20;74.30
2260;DHT22;333;48.800;9.530;2023-06-01T10:06:50;27.30;73.10
2260;DHT22;333;48.800;9.530;2023-06-01T10:09:18;27.10;74.60
2260;DHT22;333;48.800;9.530;2023-06-01T10:11:47;26.90;75.80
2260;DHT22;333;48.800;9.530;2023-06-01T10:14:15;26.50;74.20
2260;DHT22;333;48.800;9.530;2023-06-01T10:16:43;26.30;74.50
2260;DHT22;333;48.800;9.530;2023-06-01T10:19:11;26.20;75.50
2260;DHT22;333;48.800;9.530;2023-06-01T10:21:43;26.60;72.80
2260;DHT22;333;48.800;9.530;2023-06-01T10:24:11;26.90;74.40
2260;DHT22;333;48.800;9.530;2023-06-01T10:26:42;27.50;72.00
2260;DHT22;333;48.800;9.530;2023-06-01T10:29:11;28.00;70.80
2260;DHT22;333;48.800;9.530;2023-06-01T10:31:39;28.00;70.90
2260;DHT22;333;48.800;9.530;2023-06-01T10:34:09;28.00;71.20
2260;DHT22;333;48.800;9.530;2023-06-01T10:39:41;26.90;72.10
2260;DHT22;333;48.800;9.530;2023-06-01T10:42:38;27.20;72.10
2260;DHT22;333;48.800;9.530;2023-06-01T10:45:07;27.80;68.10
2260;DHT22;333;48.800;9.530;2023-06-01T10:47:46;28.00;69.10
2260;DHT22;333;48.800;9.530;2023-06-01T10:50:16;28.20;66.70
2260;DHT22;333;48.800;9.530;2023-06-01T10:52:44;28.20;67.40
2260;DHT22;333;48.800;9.530;2023-06-01T10:55:22;28.20;67.00
2260;DHT22;333;48.800;9.530;2023-06-01T10:57:49;28.10;66.90
2260;DHT22;333;48.800;9.530;2023-06-01T11:00:19;28.00;66.50
2260;DHT22;333;48.800;9.530;2023-06-01T11:02:53;27.40;67.50
2260;DHT22;333;48.800;9.530;2023-06-01T11:05:39;27.40;66.40
2260;DHT22;333;48.800;9.530;2023-06-01T11:08:08;28.00;69.10
2260;DHT22;333;48.800;9.530;2023-06-01T11:10:54;28.40;67.90
2260;DHT22;333;48.800;9.530;2023-06-01T11:13:23;28.30;66.00
2260;DHT22;333;48.800;9.530;2023-06-01T11:16:28;28.40;65.50
2260;DHT22;333;48.800;9.530;2023-06-01T11:18:56;28.10;66.30
2260;DHT22;333;48.800;9.530;2023-06-01T11:21:31;28.40;64.50
2260;DHT22;333;48.800;9.530;2023-06-01T11:24:00;28.00;65.50
2260;DHT22;333;48.800;9.530;2023-06-01T11:26:30;27.80;68.50
2260;DHT22;333;48.800;9.530;2023-06-01T11:29:09;27.50;66.20
2260;DHT22;333;48.800;9.530;2023-06-01T11:31:39;27.80;66.20
2260;DHT22;333;48.800;9.530;2023-06-01T11:34:07;28.00;66.10
2260;DHT22;333;48.800;9.530;2023-06-01T11:36:41;27.50;65.70
2260;DHT22;333;48.800;9.530;2023-06-01T11:39:22;27.10;65.60
2260;DHT22;333;48.800;9.530;2023-06-01T11:41:51;27.20;66.00
2260;DHT22;333;48.800;9.530;2023-06-01T11:44:19;27.10;67.00
2260;DHT22;333;48.800;9.530;2023-06-01T11:46:53;27.20;65.60
2260;DHT22;333;48.800;9.530;2023-06-01T11:49:21;27.40;65.00
2260;DHT22;333;48.800;9.530;2023-06-01T11:51:50;28.30;63.70
2260;DHT22;333;48.800;9.530;2023-06-01T11:54:25;28.70;64.60
2260;DHT22;333;48.800;9.530;2023-06-01T11:56:53;28.70;63.20
2260;DHT22;333;48.800;9.530;2023-06-01T11:59:21;28.60;62.70
2260;DHT22;333;48.800;9.530;2023-06-01T12:01:49;28.70;62.90
2260;DHT22;333;48.800;9.530;2023-06-01T12:04:19;28.50;62.40
2260;DHT22;333;48.800;9.530;2023-06-01T12:06:47;28.40;63.60
2260;DHT22;333;48.800;9.530;2023-06-01T12:09:16;28.20;63.00
2260;DHT22;333;48.800;9.530;2023-06-01T12:11:44;27.80;63.70
2260;DHT22;333;48.800;9.530;2023-06-01T12:14:12;28.00;63.90
2260;DHT22;333;48.800;9.530;2023-06-01T12:16:52;28.30;63.10
2260;DHT22;333;48.800;9.530;2023-06-01T12:19:19;28.40;62.10
2260;DHT22;333;48.800;9.530;2023-06-01T12:21:47;28.90;61.70
2260;DHT22;333;48.800;9.530;2023-06-01T12:24:18;29.20;61.10
2260;DHT22;333;48.800;9.530;2023-06-01T12:26:45;29.80;60.10
2260;DHT22;333;48.800;9.530;2023-06-01T12:29:12;30.10;60.90
2260;DHT22;333;48.800;9.530;2023-06-01T12:31:39;29.80;60.20
2260;DHT22;333;48.800;9.530;2023-06-01T12:34:18;29.60;62.80
2260;DHT22;333;48.800;9.530;2023-06-01T12:36:45;28.90;60.90
2260;DHT22;333;48.800;9.530;2023-06-01T12:39:12;29.20;63.10
2260;DHT22;333;48.800;9.530;2023-06-01T12:41:48;29.40;61.40
2260;DHT22;333;48.800;9.530;2023-06-01T12:44:19;29.40;61.00
2260;DHT22;333;48.800;9.530;2023-06-01T12:46:46;28.90;61.00
2260;DHT22;333;48.800;9.530;2023-06-01T12:49:15;28.50;61.80
2260;DHT22;333;48.800;9.530;2023-06-01T12:51:43;28.10;62.20
2260;DHT22;333;48.800;9.530;2023-06-01T12:54:10;28.90;60.60
2260;DHT22;333;48.800;9.530;2023-06-01T12:56:38;29.00;60.80
2260;DHT22;333;48.800;9.530;2023-06-01T12:59:06;29.80;60.10
2260;DHT22;333;48.800;9.530;2023-06-01T13:01:33;30.10;59.10
2260;DHT22;333;48.800;9.530;2023-06-01T13:04:00;30.50;58.40
2260;DHT22;333;48.800;9.530;2023-06-01T13:06:28;30.90;57.80
2260;DHT22;333;48.800;9.530;2023-06-01T13:08:55;31.40;57.20
2260;DHT22;333;48.800;9.530;2023-06-01T13:11:23;31.90;56.10
2260;DHT22;333;48.800;9.530;2023-06-01T13:13:50;31.90;56.30
2260;DHT22;333;48.800;9.530;2023-06-01T13:16:19;32.10;55.80
2260;DHT22;333;48.800;9.530;2023-06-01T13:18:46;30.60;55.50
2260;DHT22;333;48.800;9.530;2023-06-01T13:21:16;29.80;57.40
2260;DHT22;333;48.800;9.530;2023-06-01T13:23:43;29.30;57.90
2260;DHT22;333;48.800;9.530;2023-06-01T13:26:12;30.00;57.50
2260;DHT22;333;48.800;9.530;2023-06-01T13:28:40;31.00;57.70
2260;DHT22;333;48.800;9.530;2023-06-01T13:31:07;29.80;58.10
2260;DHT22;333;48.800;9.530;2023-06-01T13:33:36;29.30;58.10
2260;DHT22;333;48.800;9.530;2023-06-01T13:36:03;29.70;56.80
2260;DHT22;333;48.800;9.530;2023-06-01T13:38:31;29.30;58.90
2260;DHT22;333;48.800;9.530;2023-06-01T13:40:58;30.00;56.60
2260;DHT22;333;48.800;9.530;2023-06-01T13:43:26;29.70;57.60
2260;DHT22;333;48.800;9.530;2023-06-01T13:45:53;29.70;57.10
2260;DHT22;333;48.800;9.530;2023-06-01T13:48:20;29.50;57.50
2260;DHT22;333;48.800;9.530;2023-06-01T13:50:49;29.60;57.20
2260;DHT22;333;48.800;9.530;2023-06-01T13:53:17;29.30;57.60
2260;DHT22;333;48.800;9.530;2023-06-01T13:55:44;29.20;57.60
2260;DHT22;333;48.800;9.530;2023-06-01T13:58:11;28.80;57.10
2260;DHT22;333;48.800;9.530;2023-06-01T14:00:38;28.90;56.90
2260;DHT22;333;48.800;9.530;2023-06-01T14:03:06;28.60;57.50
2260;DHT22;333;48.800;9.530;2023-06-01T14:05:33;28.90;56.60
2260;DHT22;333;48.800;9.530;2023-06-01T14:08:02;29.00;56.30
2260;DHT22;333;48.800;9.530;2023-06-01T14:10:30;28.70;57.70
2260;DHT22;333;48.800;9.530;2023-06-01T14:12:57;28.90;55.50
2260;DHT22;333;48.800;9.530;2023-06-01T14:15:24;29.50;57.50
2260;DHT22;333;48.800;9.530;2023-06-01T14:17:51;29.70;60.10
2260;DHT22;333;48.800;9.530;2023-06-01T14:20:18;29.70;60.80
2260;DHT22;333;48.800;9.530;2023-06-01T14:22:45;29.70;60.30
2260;DHT22;333;48.800;9.530;2023-06-01T14:25:14;29.60;61.30
2260;DHT22;333;48.800;9.530;2023-06-01T14:27:41;29.40;62.50
2260;DHT22;333;48.800;9.530;2023-06-01T14:30:08;29.30;61.40
2260;DHT22;333;48.800;9.530;2023-06-01T14:32:35;29.70;60.30
2260;DHT22;333;48.800;9.530;2023-06-01T14:35:02;29.40;60.30
2260;DHT22;333;48.800;9.530;2023-06-01T14:37:30;29.90;61.40
2260;DHT22;333;48.800;9.530;2023-06-01T14:39:57;29.80;61.10
2260;DHT22;333;48.800;9.530;2023-06-01T14:42:26;30.00;62.30
2260;DHT22;333;48.800;9.530;2023-06-01T14:44:53;29.90;60.70
2260;DHT22;333;48.800;9.530;2023-06-01T14:47:20;30.40;61.50
2260;DHT22;333;48.800;9.530;2023-06-01T14:49:47;29.80;61.00
2260;DHT22;333;48.800;9.530;2023-06-01T14:52:14;29.90;61.90
2260;DHT22;333;48.800;9.530;2023-06-01T14:54:41;30.00;61.50
2260;DHT22;333;48.800;9.530;2023-06-01T14:57:08;29.90;61.50
2260;DHT22;333;48.800;9.530;2023-06-01T14:59:37;29.80;61.90
2260;DHT22;333;48.800;9.530;2023-06-01T15:02:06;29.50;62.70
2260;DHT22;333;48.800;9.530;2023-06-01T15:04:33;29.30;62.40
2260;DHT22;333;48.800;9.530;2023-06-01T15:07:00;29.30;62.00
2260;DHT22;333;48.800;9.530;2023-06-01T15:09:27;29.60;62.20
2260;DHT22;333;48.800;9.530;2023-06-01T15:11:54;29.30;63.10
2260;DHT22;333;48.800;9.530;2023-06-01T15:14:22;29.60;61.80
2260;DHT22;333;48.800;9.530;2023-06-01T15:16:50;29.50;61.90
2260;DHT22;333;48.800;9.530;2023-06-01T15:19:17;29.50;62.00
2260;DHT22;333;48.800;9.530;2023-06-01T15:21:44;29.70;62.40
2260;DHT22;333;48.800;9.530;2023-06-01T15:24:11;29.60;61.60
2260;DHT22;333;48.800;9.530;2023-06-01T15:26:38;29.50;61.50
2260;DHT22;333;48.800;9.530;2023-06-01T15:29:06;29.50;61.50
2260;DHT22;333;48.800;9.530;2023-06-01T15:31:33;29.20;61.90
2260;DHT22;333;48.800;9.530;2023-06-01T15:34:02;29.10;61.90
2260;DHT22;333;48.800;9.530;2023-06-01T15:36:30;28.70;61.20
2260;DHT22;333;48.800;9.530;2023-06-01T15:38:57;28.50;61.90
2260;DHT22;333;48.800;9.530;2023-06-01T15:41:24;28.60;63.10
2260;DHT22;333;48.800;9.530;2023-06-01T15:43:53;29.00;62.40
2260;DHT22;333;48.800;9.530;2023-06-01T15:46:20;29.30;62.10
2260;DHT22;333;48.800;9.530;2023-06-01T15:48:47;29.70;61.00
2260;DHT22;333;48.800;9.530;2023-06-01T15:51:15;29.40;61.00
2260;DHT22;333;48.800;9.530;2023-06-01T15:53:42;28.90;62.00
2260;DHT22;333;48.800;9.530;2023-06-01T15:56:09;29.20;61.20
2260;DHT22;333;48.800;9.530;2023-06-01T15:58:37;29.60;60.70
2260;DHT22;333;48.800;9.530;2023-06-01T16:01:04;29.70;59.40
2260;DHT22;333;48.800;9.530;2023-06-01T16:03:31;29.30;59.50
2260;DHT22;333;48.800;9.530;2023-06-01T16:05:58;29.80;59.10
2260;DHT22;333;48.800;9.530;2023-06-01T16:08:28;29.70;60.00
2260;DHT22;333;48.800;9.530;2023-06-01T16:10:55;29.60;59.30
2260;DHT22;333;48.800;9.530;2023-06-01T16:13:22;29.60;58.40
2260;DHT22;333;48.800;9.530;2023-06-01T16:15:49;29.40;59.10
2260;DHT22;333;48.800;9.530;2023-06-01T16:18:16;29.20;59.10
2260;DHT22;333;48.800;9.530;2023-06-01T16:20:44;28.30;60.90
2260;DHT22;333;48.800;9.530;2023-06-01T16:23:11;28.30;61.70
2260;DHT22;333;48.800;9.530;2023-06-01T16:25:40;28.80;60.70
2260;DHT22;333;48.800;9.530;2023-06-01T16:28:07;28.40;60.00
2260;DHT22;333;48.800;9.530;2023-06-01T16:30:34;28.20;60.90